sensor_id;sensor_type;location;lat;lon;timestamp;pressure;altitude;pressure_sealevel;temperature;humidity
20624;BME280;10471;42.736;23.346;2023-02-18T00:02:17;96359.00;;;0.95;100.00
20624;BME280;10471;42.736;23.346;2023-02-18T00:04:42;96341.06;;;1.00;100.00
20624;BME280;10471;42.736;23.346;2023-02-18T00:07:07;96347.88;;;1.01;100.00
20624;BME280;10471;42.736;23.346;2023-02-18T00:09:33;96351.66;;;0.98;100.00
20624;BME280;10471;42.736;23.346;2023-02-18T00:11:58;96337.84;;;0.98;100.00
20624;BME280;10471;42.736;23.346;2023-02-18T00:14:24;96345.84;;;0.96;100.00
20624;BME280;10471;42.736;23.346;2023-02-18T00:16:49;96343.44;;;0.95;100.00
20624;BME280;10471;42.736;23.346;2023-02-18T00:19:16;96337.81;;;0.85;100.00
20624;BME280;10471;42.736;23.346;2023-02-18T00:21:42;96326.97;;;0.75;100.00
20624;BME280;10471;42.736;23.346;2023-02-18T00:24:08;96328.50;;;0.63;100.00
20624;BME280;10471;42.736;23.346;2023-02-18T00:26:34;96323.66;;;0.60;100.00
20624;BME280;10471;42.736;23.346;2023-02-18T00:29:00;96315.66;;;0.55;100.00
20624;BME280;10471;42.736;23.346;2023-02-18T00:31:32;96311.72;;;0.59;100.00
20624;BME280;10471;42.736;23.346;2023-02-18T00:33:58;96306.91;;;0.56;100.00
20624;BME280;10471;42.736;23.346;2023-02-18T00:36:24;96304.94;;;0.58;100.00
20624;BME280;10471;42.736;23.346;2023-02-18T00:38:56;96310.13;;;0.58;100.00
20624;BME280;10471;42.736;23.346;2023-02-18T00:41:23;96302.94;;;0.60;100.00
20624;BME280;10471;42.736;23.346;2023-02-18T00:43:49;96304.75;;;0.60;100.00
20624;BME280;10471;42.736;23.346;2023-02-18T00:46:14;96310.47;;;0.55;100.00
20624;BME280;10471;42.736;23.346;2023-02-18T00:48:40;96308.06;;;0.47;100.00
20624;BME280;10471;42.736;23.346;2023-02-18T00:51:06;96313.88;;;0.49;100.00
20624;BME280;10471;42.736;23.346;2023-02-18T00:53:32;96306.44;;;0.46;100.00
20624;BME280;10471;42.736;23.346;2023-02-18T00:55:58;96304.41;;;0.42;100.00
20624;BME280;10471;42.736;23.346;2023-02-18T00:58:24;96306.75;;;0.30;100.00
20624;BME280;10471;42.736;23.346;2023-02-18T01:00:50;96310.22;;;0.16;100.00
20624;BME280;10471;42.736;23.346;2023-02-18T01:03:15;96310.81;;;0.18;100.00
20624;BME280;10471;42.736;23.346;2023-02-18T01:05:41;96308.53;;;0.02;100.00
20624;BME280;10471;42.736;23.346;2023-02-18T01:08:07;96306.44;;;-0.08;100.00
20624;BME280;10471;42.736;23.346;2023-02-18T01:10:34;96303.63;;;-0.13;100.00
20624;BME280;10471;42.736;23.346;2023-02-18T01:13:00;96298.44;;;-0.13;100.00
20624;BME280;10471;42.736;23.346;2023-02-18T01:15:26;96294.00;;;-0.19;100.00
20624;BME280;10471;42.736;23.346;2023-02-18T01:17:51;96293.13;;;-0.26;100.00
20624;BME280;10471;42.736;23.346;2023-02-18T01:20:18;96300.28;;;-0.28;100.00
20624;BME280;10471;42.736;23.346;2023-02-18T01:22:43;96295.09;;;-0.28;100.00
20624;BME280;10471;42.736;23.346;2023-02-18T01:25:10;96289.03;;;-0.42;100.00
20624;BME280;10471;42.736;23.346;2023-02-18T01:27:36;96288.66;;;-0.39;100.00
20624;BME280;10471;42.736;23.346;2023-02-18T01:30:04;96287.47;;;-0.36;100.00
20624;BME280;10471;42.736;23.346;2023-02-18T01:32:30;96277.13;;;-0.36;100.00
20624;BME280;10471;42.736;23.346;2023-02-18T01:34:55;96289.44;;;-0.38;100.00
20624;BME280;10471;42.736;23.346;2023-02-18T01:37:21;96288.22;;;-0.42;100.00
20624;BME280;10471;42.736;23.346;2023-02-18T01:39:46;96290.25;;;-0.38;100.00
20624;BME280;10471;42.736;23.346;2023-02-18T01:42:20;96297.84;;;-0.36;100.00
20624;BME280;10471;42.736;23.346;2023-02-18T01:44:47;96303.19;;;-0.38;100.00
20624;BME280;10471;42.736;23.346;2023-02-18T01:47:14;96303.78;;;-0.36;100.00
20624;BME280;10471;42.736;23.346;2023-02-18T01:49:40;96303.63;;;-0.34;100.00
20624;BME280;10471;42.736;23.346;2023-02-18T01:52:18;96309.78;;;-0.35;100.00
20624;BME280;10471;42.736;23.346;2023-02-18T01:54:49;96303.78;;;-0.36;100.00
20624;BME280;10471;42.736;23.346;2023-02-18T01:57:17;96305.72;;;-0.44;100.00
20624;BME280;10471;42.736;23.346;2023-02-18T01:59:51;96292.50;;;-0.49;100.00
20624;BME280;10471;42.736;23.346;2023-02-18T02:02:20;96293.78;;;-0.45;100.00
20624;BME280;10471;42.736;23.346;2023-02-18T02:04:48;96289.19;;;-0.43;100.00
20624;BME280;10471;42.736;23.346;2023-02-18T02:07:15;96282.59;;;-0.46;100.00
20624;BME280;10471;42.736;23.346;2023-02-18T02:09:41;96279.47;;;-0.41;100.00
20624;BME280;10471;42.736;23.346;2023-02-18T02:20:44;96294.63;;;-0.38;100.00
20624;BME280;10471;42.736;23.346;2023-02-18T02:36:58;96284.09;;;-0.16;100.00
20624;BME280;10471;42.736;23.346;2023-02-18T02:39:55;96278.56;;;-0.06;100.00
20624;BME280;10471;42.736;23.346;2023-02-18T02:44:54;96285.13;;;-0.10;100.00
20624;BME280;10471;42.736;23.346;2023-02-18T02:50:32;96287.22;;;-0.20;100.00
20624;BME280;10471;42.736;23.346;2023-02-18T02:53:04;96291.78;;;-0.43;100.00
20624;BME280;10471;42.736;23.346;2023-02-18T02:55:30;96297.34;;;-0.46;100.00
20624;BME280;10471;42.736;23.346;2023-02-18T02:57:56;96303.97;;;-0.58;100.00
20624;BME280;10471;42.736;23.346;2023-02-18T03:00:44;96301.53;;;-0.66;100.00
20624;BME280;10471;42.736;23.346;2023-02-18T03:06:47;96298.59;;;-0.77;100.00
20624;BME280;10471;42.736;23.346;2023-02-18T03:09:23;96299.75;;;-0.80;100.00
20624;BME280;10471;42.736;23.346;2023-02-18T03:12:00;96301.13;;;-0.84;100.00
20624;BME280;10471;42.736;23.346;2023-02-18T03:14:30;96294.97;;;-0.83;100.00
20624;BME280;10471;42.736;23.346;2023-02-18T03:17:05;96300.13;;;-0.83;100.00
20624;BME280;10471;42.736;23.346;2023-02-18T03:19:39;96299.34;;;-0.83;100.00
20624;BME280;10471;42.736;23.346;2023-02-18T03:22:21;96306.84;;;-0.88;100.00
20624;BME280;10471;42.736;23.346;2023-02-18T03:24:50;96319.59;;;-0.87;100.00
20624;BME280;10471;42.736;23.346;2023-02-18T03:27:26;96325.38;;;-0.85;100.00
20624;BME280;10471;42.736;23.346;2023-02-18T03:29:58;96330.13;;;-0.88;100.00
20624;BME280;10471;42.736;23.346;2023-02-18T03:32:25;96327.09;;;-0.92;100.00
20624;BME280;10471;42.736;23.346;2023-02-18T03:35:16;96332.25;;;-0.92;100.00
20624;BME280;10471;42.736;23.346;2023-02-18T03:37:47;96332.00;;;-0.97;100.00
20624;BME280;10471;42.736;23.346;2023-02-18T03:40:16;96323.34;;;-1.04;100.00
20624;BME280;10471;42.736;23.346;2023-02-18T03:42:41;96330.13;;;-1.03;100.00
20624;BME280;10471;42.736;23.346;2023-02-18T03:45:07;96328.78;;;-0.99;100.00
20624;BME280;10471;42.736;23.346;2023-02-18T03:47:32;96333.25;;;-1.07;100.00
20624;BME280;10471;42.736;23.346;2023-02-18T03:49:57;96333.88;;;-1.05;100.00
20624;BME280;10471;42.736;23.346;2023-02-18T03:52:23;96324.44;;;-1.13;100.00
20624;BME280;10471;42.736;23.346;2023-02-18T03:54:49;96332.00;;;-1.11;100.00
20624;BME280;10471;42.736;23.346;2023-02-18T03:57:15;96322.91;;;-1.07;100.00
20624;BME280;10471;42.736;23.346;2023-02-18T03:59:40;96328.53;;;-1.04;100.00
20624;BME280;10471;42.736;23.346;2023-02-18T04:02:05;96328.78;;;-0.99;100.00
20624;BME280;10471;42.736;23.346;2023-02-18T04:04:31;96328.59;;;-0.97;100.00
20624;BME280;10471;42.736;23.346;2023-02-18T04:06:56;96341.97;;;-0.94;100.00
20624;BME280;10471;42.736;23.346;2023-02-18T04:09:22;96345.44;;;-0.87;100.00
20624;BME280;10471;42.736;23.346;2023-02-18T04:11:47;96344.28;;;-0.84;100.00
20624;BME280;10471;42.736;23.346;2023-02-18T04:14:13;96333.56;;;-0.81;100.00
20624;BME280;10471;42.736;23.346;2023-02-18T04:16:39;96329.22;;;-0.81;100.00
20624;BME280;10471;42.736;23.346;2023-02-18T04:19:05;96325.63;;;-0.80;100.00
20624;BME280;10471;42.736;23.346;2023-02-18T04:21:31;96315.28;;;-0.80;100.00
20624;BME280;10471;42.736;23.346;2023-02-18T04:23:57;96309.69;;;-0.83;100.00
20624;BME280;10471;42.736;23.346;2023-02-18T04:26:22;96315.66;;;-0.83;100.00
20624;BME280;10471;42.736;23.346;2023-02-18T04:28:47;96313.75;;;-0.74;100.00
20624;BME280;10471;42.736;23.346;2023-02-18T04:31:13;96320.09;;;-0.77;100.00
20624;BME280;10471;42.736;23.346;2023-02-18T04:33:39;96318.13;;;-0.75;100.00
20624;BME280;10471;42.736;23.346;2023-02-18T04:36:05;96311.63;;;-0.71;100.00
20624;BME280;10471;42.736;23.346;2023-02-18T04:38:30;96320.59;;;-0.67;100.00
20624;BME280;10471;42.736;23.346;2023-02-18T04:40:56;96325.78;;;-0.67;100.00
20624;BME280;10471;42.736;23.346;2023-02-18T04:43:21;96327.75;;;-0.69;100.00
20624;BME280;10471;42.736;23.346;2023-02-18T04:45:46;96315.44;;;-0.67;100.00
20624;BME280;10471;42.736;23.346;2023-02-18T04:48:12;96317.84;;;-0.66;100.00
20624;BME280;10471;42.736;23.346;2023-02-18T04:50:37;96321.50;;;-0.60;100.00
20624;BME280;10471;42.736;23.346;2023-02-18T04:53:03;96319.50;;;-0.58;100.00
20624;BME280;10471;42.736;23.346;2023-02-18T04:55:28;96329.13;;;-0.52;100.00
20624;BME280;10471;42.736;23.346;2023-02-18T04:57:54;96330.72;;;-0.51;100.00
20624;BME280;10471;42.736;23.346;2023-02-18T05:00:19;96340.34;;;-0.45;100.00
20624;BME280;10471;42.736;23.346;2023-02-18T05:02:45;96329.19;;;-0.46;100.00
20624;BME280;10471;42.736;23.346;2023-02-18T05:05:11;96324.81;;;-0.45;100.00
20624;BME280;10471;42.736;23.346;2023-02-18T05:07:37;96325.06;;;-0.40;100.00
20624;BME280;10471;42.736;23.346;2023-02-18T05:10:03;96317.66;;;-0.43;100.00
20624;BME280;10471;42.736;23.346;2023-02-18T05:12:29;96318.53;;;-0.36;100.00
20624;BME280;10471;42.736;23.346;2023-02-18T05:14:54;96311.41;;;-0.34;100.00
20624;BME280;10471;42.736;23.346;2023-02-18T05:17:20;96304.22;;;-0.32;100.00
20624;BME280;10471;42.736;23.346;2023-02-18T05:19:45;96292.91;;;-0.31;100.00
20624;BME280;10471;42.736;23.346;2023-02-18T05:22:10;96296.28;;;-0.31;100.00
20624;BME280;10471;42.736;23.346;2023-02-18T05:24:36;96308.44;;;-0.31;100.00
20624;BME280;10471;42.736;23.346;2023-02-18T05:27:01;96306.22;;;-0.34;100.00
20624;BME280;10471;42.736;23.346;2023-02-18T05:29:27;96315.81;;;-0.28;100.00
20624;BME280;10471;42.736;23.346;2023-02-18T05:31:52;96324.19;;;-0.26;100.00
20624;BME280;10471;42.736;23.346;2023-02-18T05:34:17;96326.25;;;-0.22;100.00
20624;BME280;10471;42.736;23.346;2023-02-18T05:36:43;96327.22;;;-0.23;100.00
20624;BME280;10471;42.736;23.346;2023-02-18T05:39:08;96322.25;;;-0.24;100.00
20624;BME280;10471;42.736;23.346;2023-02-18T05:41:34;96322.59;;;-0.27;100.00
20624;BME280;10471;42.736;23.346;2023-02-18T05:43:59;96327.78;;;-0.27;100.00
20624;BME280;10471;42.736;23.346;2023-02-18T05:46:43;96326.69;;;-0.18;100.00
20624;BME280;10471;42.736;23.346;2023-02-18T05:49:08;96334.31;;;-0.10;100.00
20624;BME280;10471;42.736;23.346;2023-02-18T05:51:33;96342.22;;;0.02;100.00
20624;BME280;10471;42.736;23.346;2023-02-18T05:53:59;96337.28;;;0.07;100.00
20624;BME280;10471;42.736;23.346;2023-02-18T05:56:24;96331.38;;;0.20;100.00
20624;BME280;10471;42.736;23.346;2023-02-18T05:58:50;96321.97;;;0.40;100.00
20624;BME280;10471;42.736;23.346;2023-02-18T06:01:15;96326.03;;;0.55;100.00
20624;BME280;10471;42.736;23.346;2023-02-18T06:03:41;96330.03;;;0.58;100.00
20624;BME280;10471;42.736;23.346;2023-02-18T06:06:06;96317.16;;;0.70;100.00
20624;BME280;10471;42.736;23.346;2023-02-18T06:08:32;96336.19;;;0.84;100.00
20624;BME280;10471;42.736;23.346;2023-02-18T06:10:57;96327.88;;;0.95;100.00
20624;BME280;10471;42.736;23.346;2023-02-18T06:13:22;96333.13;;;1.08;100.00
20624;BME280;10471;42.736;23.346;2023-02-18T06:15:51;96324.78;;;1.25;100.00
20624;BME280;10471;42.736;23.346;2023-02-18T06:18:17;96337.97;;;1.24;100.00
20624;BME280;10471;42.736;23.346;2023-02-18T06:20:43;96324.88;;;1.44;100.00
20624;BME280;10471;42.736;23.346;2023-02-18T06:23:08;96316.09;;;1.58;100.00
20624;BME280;10471;42.736;23.346;2023-02-18T06:25:34;96309.94;;;1.59;100.00
20624;BME280;10471;42.736;23.346;2023-02-18T06:27:59;96314.53;;;1.70;100.00
20624;BME280;10471;42.736;23.346;2023-02-18T06:30:25;96319.78;;;1.83;100.00
20624;BME280;10471;42.736;23.346;2023-02-18T06:32:50;96328.56;;;1.95;100.00
20624;BME280;10471;42.736;23.346;2023-02-18T06:35:15;96335.19;;;2.04;100.00
20624;BME280;10471;42.736;23.346;2023-02-18T06:37:41;96326.19;;;2.13;100.00
20624;BME280;10471;42.736;23.346;2023-02-18T06:40:08;96313.41;;;2.18;100.00
20624;BME280;10471;42.736;23.346;2023-02-18T06:42:33;96315.41;;;2.29;100.00
20624;BME280;10471;42.736;23.346;2023-02-18T06:44:59;96324.19;;;2.34;100.00
20624;BME280;10471;42.736;23.346;2023-02-18T06:47:24;96317.38;;;2.46;100.00
20624;BME280;10471;42.736;23.346;2023-02-18T06:49:49;96312.19;;;2.59;100.00
20624;BME280;10471;42.736;23.346;2023-02-18T06:52:15;96316.56;;;2.71;100.00
20624;BME280;10471;42.736;23.346;2023-02-18T06:54:40;96316.94;;;2.81;100.00
20624;BME280;10471;42.736;23.346;2023-02-18T06:57:05;96318.09;;;2.92;100.00
20624;BME280;10471;42.736;23.346;2023-02-18T06:59:32;96317.25;;;3.04;100.00
20624;BME280;10471;42.736;23.346;2023-02-18T07:01:57;96320.81;;;3.16;100.00
20624;BME280;10471;42.736;23.346;2023-02-18T07:04:22;96314.38;;;3.25;100.00
20624;BME280;10471;42.736;23.346;2023-02-18T07:06:48;96320.97;;;3.34;100.00
20624;BME280;10471;42.736;23.346;2023-02-18T07:09:13;96316.91;;;3.44;100.00
20624;BME280;10471;42.736;23.346;2023-02-18T07:11:38;96311.81;;;3.56;100.00
20624;BME280;10471;42.736;23.346;2023-02-18T07:14:04;96300.97;;;3.65;100.00
20624;BME280;10471;42.736;23.346;2023-02-18T07:16:29;96298.47;;;3.77;100.00
20624;BME280;10471;42.736;23.346;2023-02-18T07:18:54;96297.22;;;3.86;100.00
20624;BME280;10471;42.736;23.346;2023-02-18T07:21:20;96299.16;;;3.96;100.00
20624;BME280;10471;42.736;23.346;2023-02-18T07:23:45;96301.66;;;4.09;100.00
20624;BME280;10471;42.736;23.346;2023-02-18T07:26:13;96296.38;;;4.22;100.00
20624;BME280;10471;42.736;23.346;2023-02-18T07:28:38;96302.06;;;4.37;100.00
20624;BME280;10471;42.736;23.346;2023-02-18T07:31:05;96313.19;;;4.51;100.00
20624;BME280;10471;42.736;23.346;2023-02-18T07:33:30;96312.66;;;4.60;100.00
20624;BME280;10471;42.736;23.346;2023-02-18T07:35:57;96318.16;;;4.76;100.00
20624;BME280;10471;42.736;23.346;2023-02-18T07:38:24;96305.78;;;4.90;100.00
20624;BME280;10471;42.736;23.346;2023-02-18T07:40:50;96309.69;;;4.99;100.00
20624;BME280;10471;42.736;23.346;2023-02-18T07:43:16;96301.34;;;5.08;100.00
20624;BME280;10471;42.736;23.346;2023-02-18T07:45:42;96304.03;;;5.19;100.00
20624;BME280;10471;42.736;23.346;2023-02-18T07:48:07;96299.06;;;5.29;100.00
20624;BME280;10471;42.736;23.346;2023-02-18T07:50:32;96292.09;;;5.41;100.00
20624;BME280;10471;42.736;23.346;2023-02-18T07:53:02;96299.34;;;5.57;100.00
20624;BME280;10471;42.736;23.346;2023-02-18T07:55:28;96299.91;;;5.77;100.00
20624;BME280;10471;42.736;23.346;2023-02-18T07:58:20;96299.03;;;5.94;100.00
20624;BME280;10471;42.736;23.346;2023-02-18T08:00:46;96289.84;;;6.15;100.00
20624;BME280;10471;42.736;23.346;2023-02-18T08:03:13;96289.78;;;6.33;100.00
20624;BME280;10471;42.736;23.346;2023-02-18T08:05:38;96288.88;;;6.61;100.00
20624;BME280;10471;42.736;23.346;2023-02-18T08:08:04;96283.19;;;6.87;100.00
20624;BME280;10471;42.736;23.346;2023-02-18T08:10:29;96272.78;;;7.15;100.00
20624;BME280;10471;42.736;23.346;2023-02-18T08:12:54;96264.47;;;7.46;100.00
20624;BME280;10471;42.736;23.346;2023-02-18T08:15:20;96282.19;;;7.67;99.81
20624;BME280;10471;42.736;23.346;2023-02-18T08:17:45;96275.16;;;7.83;96.71
20624;BME280;10471;42.736;23.346;2023-02-18T08:20:11;96281.44;;;8.10;95.35
20624;BME280;10471;42.736;23.346;2023-02-18T08:22:36;96272.16;;;8.36;94.10
20624;BME280;10471;42.736;23.346;2023-02-18T08:25:02;96276.94;;;8.55;92.18
20624;BME280;10471;42.736;23.346;2023-02-18T08:27:27;96283.94;;;8.66;91.88
20624;BME280;10471;42.736;23.346;2023-02-18T08:29:52;96287.41;;;8.71;87.82
20624;BME280;10471;42.736;23.346;2023-02-18T08:32:20;96280.63;;;8.92;84.58
20624;BME280;10471;42.736;23.346;2023-02-18T08:34:45;96274.59;;;9.13;80.35
20624;BME280;10471;42.736;23.346;2023-02-18T08:37:10;96274.16;;;9.20;77.58
20624;BME280;10471;42.736;23.346;2023-02-18T08:39:37;96278.50;;;9.31;75.56
20624;BME280;10471;42.736;23.346;2023-02-18T08:42:03;96276.88;;;9.47;74.89
20624;BME280;10471;42.736;23.346;2023-02-18T08:44:29;96278.09;;;9.61;74.96
20624;BME280;10471;42.736;23.346;2023-02-18T08:46:54;96283.03;;;9.78;74.97
20624;BME280;10471;42.736;23.346;2023-02-18T08:49:20;96285.91;;;9.98;74.73
20624;BME280;10471;42.736;23.346;2023-02-18T08:51:51;96275.81;;;10.17;73.52
20624;BME280;10471;42.736;23.346;2023-02-18T08:54:16;96272.25;;;10.33;71.36
20624;BME280;10471;42.736;23.346;2023-02-18T08:56:42;96277.63;;;10.43;69.29
20624;BME280;10471;42.736;23.346;2023-02-18T08:59:08;96269.53;;;10.54;68.89
20624;BME280;10471;42.736;23.346;2023-02-18T09:01:33;96267.66;;;10.49;67.23
20624;BME280;10471;42.736;23.346;2023-02-18T09:03:58;96265.56;;;10.51;67.85
20624;BME280;10471;42.736;23.346;2023-02-18T09:06:24;96263.50;;;10.58;66.00
20624;BME280;10471;42.736;23.346;2023-02-18T09:08:50;96259.56;;;10.61;61.34
20624;BME280;10471;42.736;23.346;2023-02-18T09:11:16;96263.84;;;10.67;59.90
20624;BME280;10471;42.736;23.346;2023-02-18T09:13:41;96268.28;;;10.66;56.57
20624;BME280;10471;42.736;23.346;2023-02-18T09:16:11;96257.81;;;10.76;55.32
20624;BME280;10471;42.736;23.346;2023-02-18T09:18:37;96260.75;;;10.80;56.18
20624;BME280;10471;42.736;23.346;2023-02-18T09:21:06;96253.66;;;10.80;55.24
20624;BME280;10471;42.736;23.346;2023-02-18T09:23:32;96251.03;;;10.85;55.20
20624;BME280;10471;42.736;23.346;2023-02-18T09:25:58;96245.00;;;10.95;56.59
20624;BME280;10471;42.736;23.346;2023-02-18T09:28:24;96241.34;;;10.96;56.05
20624;BME280;10471;42.736;23.346;2023-02-18T09:30:50;96240.91;;;11.13;55.60
20624;BME280;10471;42.736;23.346;2023-02-18T09:33:17;96234.97;;;11.38;54.91
20624;BME280;10471;42.736;23.346;2023-02-18T09:35:44;96238.22;;;11.60;54.41
20624;BME280;10471;42.736;23.346;2023-02-18T09:38:12;96236.44;;;11.85;53.97
20624;BME280;10471;42.736;23.346;2023-02-18T09:40:42;96226.72;;;12.15;53.95
20624;BME280;10471;42.736;23.346;2023-02-18T09:43:17;96238.59;;;12.47;49.68
20624;BME280;10471;42.736;23.346;2023-02-18T09:45:43;96242.53;;;12.75;46.97
20624;BME280;10471;42.736;23.346;2023-02-18T09:48:08;96240.94;;;12.74;46.05
20624;BME280;10471;42.736;23.346;2023-02-18T09:50:35;96244.16;;;12.66;45.44
20624;BME280;10471;42.736;23.346;2023-02-18T09:53:02;96231.19;;;12.74;45.58
20624;BME280;10471;42.736;23.346;2023-02-18T09:58:03;96230.34;;;12.84;46.63
20624;BME280;10471;42.736;23.346;2023-02-18T10:00:34;96229.88;;;12.87;46.40
20624;BME280;10471;42.736;23.346;2023-02-18T10:03:07;96229.84;;;12.97;47.11
20624;BME280;10471;42.736;23.346;2023-02-18T10:05:36;96218.66;;;13.14;45.91
20624;BME280;10471;42.736;23.346;2023-02-18T10:08:06;96208.09;;;13.19;45.55
20624;BME280;10471;42.736;23.346;2023-02-18T10:10:41;96206.94;;;13.35;42.81
20624;BME280;10471;42.736;23.346;2023-02-18T10:13:13;96212.69;;;13.52;43.87
20624;BME280;10471;42.736;23.346;2023-02-18T10:15:40;96197.25;;;13.69;42.29
20624;BME280;10471;42.736;23.346;2023-02-18T10:18:38;96201.94;;;13.82;42.00
20624;BME280;10471;42.736;23.346;2023-02-18T10:21:08;96190.72;;;13.95;41.92
20624;BME280;10471;42.736;23.346;2023-02-18T10:24:25;96182.69;;;14.10;41.86
20624;BME280;10471;42.736;23.346;2023-02-18T10:26:25;96195.13;;;14.14;39.97
20624;BME280;10471;42.736;23.346;2023-02-18T10:28:51;96188.81;;;14.10;39.56
20624;BME280;10471;42.736;23.346;2023-02-18T10:31:35;96183.88;;;14.27;39.66
20624;BME280;10471;42.736;23.346;2023-02-18T10:34:13;96187.91;;;14.53;39.03
20624;BME280;10471;42.736;23.346;2023-02-18T10:36:46;96175.84;;;14.65;38.81
20624;BME280;10471;42.736;23.346;2023-02-18T10:39:19;96174.19;;;14.74;37.68
20624;BME280;10471;42.736;23.346;2023-02-18T10:52:46;96157.19;;;15.22;37.94
20624;BME280;10471;42.736;23.346;2023-02-18T10:55:16;96154.44;;;15.32;37.44
20624;BME280;10471;42.736;23.346;2023-02-18T10:57:53;96164.69;;;15.15;37.57
20624;BME280;10471;42.736;23.346;2023-02-18T11:00:25;96165.81;;;15.09;37.30
20624;BME280;10471;42.736;23.346;2023-02-18T11:03:16;96148.78;;;14.92;38.07
20624;BME280;10471;42.736;23.346;2023-02-18T11:05:44;96152.03;;;15.07;38.63
20624;BME280;10471;42.736;23.346;2023-02-18T11:08:16;96147.91;;;15.24;39.13
20624;BME280;10471;42.736;23.346;2023-02-18T11:10:45;96124.03;;;14.96;37.68
20624;BME280;10471;42.736;23.346;2023-02-18T11:13:16;96123.13;;;15.06;38.47
20624;BME280;10471;42.736;23.346;2023-02-18T11:16:01;96117.16;;;14.95;37.42
20624;BME280;10471;42.736;23.346;2023-02-18T11:18:48;96116.69;;;14.65;38.86
20624;BME280;10471;42.736;23.346;2023-02-18T11:21:25;96113.34;;;14.54;39.03
20624;BME280;10471;42.736;23.346;2023-02-18T11:23:55;96106.53;;;14.48;39.28
20624;BME280;10471;42.736;23.346;2023-02-18T11:26:26;96108.56;;;14.56;39.16
20624;BME280;10471;42.736;23.346;2023-02-18T11:28:57;96107.91;;;14.69;39.24
20624;BME280;10471;42.736;23.346;2023-02-18T11:31:37;96109.56;;;14.60;39.18
20624;BME280;10471;42.736;23.346;2023-02-18T11:34:04;96101.34;;;14.85;38.66
20624;BME280;10471;42.736;23.346;2023-02-18T11:36:33;96100.25;;;14.86;39.02
20624;BME280;10471;42.736;23.346;2023-02-18T11:39:19;96090.81;;;14.99;39.06
20624;BME280;10471;42.736;23.346;2023-02-18T11:41:52;96094.22;;;15.04;39.82
20624;BME280;10471;42.736;23.346;2023-02-18T11:44:36;96094.41;;;15.31;39.45
20624;BME280;10471;42.736;23.346;2023-02-18T11:49:40;96086.44;;;15.68;38.22
20624;BME280;10471;42.736;23.346;2023-02-18T11:52:25;96071.28;;;15.50;38.53
20624;BME280;10471;42.736;23.346;2023-02-18T11:55:05;96065.25;;;15.63;38.12
20624;BME280;10471;42.736;23.346;2023-02-18T11:57:34;96074.06;;;15.76;38.46
20624;BME280;10471;42.736;23.346;2023-02-18T12:00:02;96063.66;;;15.80;38.88
20624;BME280;10471;42.736;23.346;2023-02-18T12:02:36;96059.28;;;16.02;39.20
20624;BME280;10471;42.736;23.346;2023-02-18T12:05:15;96060.44;;;15.96;38.96
20624;BME280;10471;42.736;23.346;2023-02-18T12:07:45;96052.38;;;16.01;38.82
20624;BME280;10471;42.736;23.346;2023-02-18T12:10:26;96060.53;;;16.23;38.61
20624;BME280;10471;42.736;23.346;2023-02-18T12:12:57;96063.28;;;16.18;38.60
20624;BME280;10471;42.736;23.346;2023-02-18T12:15:38;96047.50;;;16.08;39.29
20624;BME280;10471;42.736;23.346;2023-02-18T12:18:13;96039.59;;;16.35;39.46
20624;BME280;10471;42.736;23.346;2023-02-18T12:28:50;96025.72;;;15.74;40.43
20624;BME280;10471;42.736;23.346;2023-02-18T12:31:30;96023.56;;;15.76;40.61
20624;BME280;10471;42.736;23.346;2023-02-18T12:37:32;95994.88;;;16.05;40.48
20624;BME280;10471;42.736;23.346;2023-02-18T12:39:52;95997.75;;;16.09;40.52
20624;BME280;10471;42.736;23.346;2023-02-18T12:45:46;95989.31;;;16.47;39.31
20624;BME280;10471;42.736;23.346;2023-02-18T13:08:10;95992.16;;;16.91;39.03
20624;BME280;10471;42.736;23.346;2023-02-18T13:15:53;95977.34;;;16.85;38.69
20624;BME280;10471;42.736;23.346;2023-02-18T13:18:27;95969.66;;;16.97;38.19
20624;BME280;10471;42.736;23.346;2023-02-18T13:20:55;95970.66;;;16.74;38.25
20624;BME280;10471;42.736;23.346;2023-02-18T13:23:33;95978.34;;;16.75;38.53
20624;BME280;10471;42.736;23.346;2023-02-18T13:26:01;95985.06;;;16.59;38.63
20624;BME280;10471;42.736;23.346;2023-02-18T13:28:43;95992.78;;;16.61;38.68
20624;BME280;10471;42.736;23.346;2023-02-18T13:33:53;95981.53;;;16.64;38.90
20624;BME280;10471;42.736;23.346;2023-02-18T13:36:31;95973.34;;;16.60;39.16
20624;BME280;10471;42.736;23.346;2023-02-18T13:41:35;95978.50;;;16.30;39.84
20624;BME280;10471;42.736;23.346;2023-02-18T13:44:06;95979.13;;;16.22;39.14
20624;BME280;10471;42.736;23.346;2023-02-18T13:46:46;95968.44;;;16.27;39.50
20624;BME280;10471;42.736;23.346;2023-02-18T13:49:13;95967.13;;;16.11;39.40
20624;BME280;10471;42.736;23.346;2023-02-18T13:51:45;95967.19;;;16.06;39.90
20624;BME280;10471;42.736;23.346;2023-02-18T14:00:03;95965.16;;;16.03;40.13
20624;BME280;10471;42.736;23.346;2023-02-18T14:03:01;95962.16;;;15.91;40.53
20624;BME280;10471;42.736;23.346;2023-02-18T14:05:40;95966.91;;;15.94;40.25
20624;BME280;10471;42.736;23.346;2023-02-18T14:08:12;95961.09;;;15.92;40.15
20624;BME280;10471;42.736;23.346;2023-02-18T14:10:38;95959.09;;;15.84;40.05
20624;BME280;10471;42.736;23.346;2023-02-18T14:13:20;95966.28;;;15.84;40.43
20624;BME280;10471;42.736;23.346;2023-02-18T14:15:52;95965.50;;;15.83;40.07
20624;BME280;10471;42.736;23.346;2023-02-18T14:18:25;95977.59;;;15.76;39.98
20624;BME280;10471;42.736;23.346;2023-02-18T14:20:51;95977.09;;;15.74;40.43
20624;BME280;10471;42.736;23.346;2023-02-18T14:28:40;95975.31;;;15.70;41.23
20624;BME280;10471;42.736;23.346;2023-02-18T14:33:41;95986.69;;;15.57;40.62
20624;BME280;10471;42.736;23.346;2023-02-18T14:36:23;95985.38;;;15.73;41.52
20624;BME280;10471;42.736;23.346;2023-02-18T14:49:55;95980.72;;;15.65;41.44
20624;BME280;10471;42.736;23.346;2023-02-18T14:52:40;95972.50;;;15.48;42.22
20624;BME280;10471;42.736;23.346;2023-02-18T14:55:18;95979.16;;;15.45;42.42